Time;durP1;ratioP1;P1;durP2;ratioP2;P2;SDS_P1;SDS_P2;PMS_P1;PMS_P2;Temp;Humidity;BMP_temperature;BMP_pressure;BME280_temperature;BME280_humidity;BME280_pressure;Samples;Min_cycle;Max_cycle;Signal;HPM_P1;HPM_P2
2023/01/18 00:00:29;;;;;;;25.58;16.75;;;1.60;99.90;;;;;;5023717;28;20033;-83
2023/01/18 00:02:56;;;;;;;26.50;16.13;;;1.60;99.90;;;;;;5032571;28;20017;-82
2023/01/18 00:05:21;;;;;;;25.23;14.93;;;1.60;99.90;;;;;;5033656;28;20450;-82
2023/01/18 00:07:51;;;;;;;26.70;13.70;;;1.60;99.90;;;;;;5031875;28;20098;-83
2023/01/18 00:10:17;;;;;;;23.67;12.85;;;1.60;99.90;;;;;;5047588;28;20025;-83
2023/01/18 00:12:43;;;;;;;21.60;11.85;;;1.60;99.90;;;;;;5049086;28;20029;-83
2023/01/18 00:15:09;;;;;;;19.52;11.15;;;1.50;99.90;;;;;;5048418;28;20489;-83
2023/01/18 00:17:46;;;;;;;21.38;12.43;;;1.50;99.90;;;;;;5047702;28;20057;-83
2023/01/18 00:20:15;;;;;;;18.65;11.65;;;1.60;99.90;;;;;;5033766;28;20464;-82
2023/01/18 00:22:41;;;;;;;18.38;10.07;;;1.50;99.90;;;;;;5048840;28;20029;-82
2023/01/18 00:25:09;;;;;;;18.55;9.23;;;1.50;99.90;;;;;;5048476;28;20486;-83
2023/01/18 00:27:38;;;;;;;17.60;9.88;;;1.50;99.90;;;;;;5048266;28;20074;-84
2023/01/18 00:30:06;;;;;;;19.77;10.38;;;1.50;99.90;;;;;;5033812;28;20032;-84
2023/01/18 00:32:35;;;;;;;16.45;10.55;;;1.50;99.90;;;;;;5011497;28;20053;-84
2023/01/18 00:35:06;;;;;;;16.05;8.85;;;1.50;99.90;;;;;;5029180;28;20057;-83
2023/01/18 00:37:33;;;;;;;19.80;11.18;;;1.50;99.90;;;;;;5028955;28;20487;-83
2023/01/18 00:40:00;;;;;;;17.80;10.43;;;1.50;99.90;;;;;;5011248;28;20024;-83
2023/01/18 00:45:12;;;;;;;19.83;11.55;;;1.40;99.90;;;;;;5030346;28;20563;-83
2023/01/18 00:47:38;;;;;;;22.77;13.50;;;1.40;99.90;;;;;;5029428;28;20033;-83
2023/01/18 00:50:04;;;;;;;23.35;13.73;;;1.40;99.90;;;;;;5029261;28;20022;-83
2023/01/18 00:52:30;;;;;;;24.58;13.55;;;1.40;99.90;;;;;;5029450;28;20425;-82
2023/01/18 00:54:55;;;;;;;23.70;15.18;;;1.30;99.90;;;;;;5044292;27;20052;-83
2023/01/18 00:57:21;;;;;;;28.27;15.30;;;1.40;99.90;;;;;;5093694;28;20044;-83
2023/01/18 00:59:47;;;;;;;28.60;15.50;;;1.30;99.90;;;;;;5032220;28;20028;-83
2023/01/18 01:02:13;;;;;;;27.13;15.30;;;1.30;99.90;;;;;;5032426;28;20024;-83
2023/01/18 01:07:23;;;;;;;26.25;15.50;;;1.20;99.90;;;;;;5049968;28;20044;-82
2023/01/18 01:09:49;;;;;;;25.92;15.98;;;1.20;99.90;;;;;;5049947;28;20029;-82
2023/01/18 01:26:06;;;;;;;23.45;14.98;;;1.00;99.90;;;;;;5050070;28;20089;-83
2023/01/18 01:28:38;;;;;;;24.48;13.88;;;1.00;99.90;;;;;;5031950;28;20077;-82
2023/01/18 01:31:06;;;;;;;24.73;14.05;;;0.90;99.90;;;;;;5053169;28;20053;-82
2023/01/18 01:33:33;;;;;;;20.33;12.90;;;0.90;99.90;;;;;;5035391;28;20032;-82
2023/01/18 01:36:02;;;;;;;26.77;16.17;;;0.80;99.90;;;;;;5053061;28;20416;-82
2023/01/18 01:38:28;;;;;;;23.55;12.68;;;0.80;99.90;;;;;;5035192;28;20025;-84
2023/01/18 01:40:56;;;;;;;18.65;13.10;;;0.80;99.90;;;;;;5035116;28;20018;-81
2023/01/18 01:43:40;;;;;;;22.52;13.73;;;0.70;99.90;;;;;;5035174;28;20390;-82
2023/01/18 01:46:18;;;;;;;20.10;12.48;;;0.70;99.90;;;;;;5052925;28;20029;-82
2023/01/18 01:48:45;;;;;;;22.45;13.20;;;0.70;99.90;;;;;;5051673;28;20032;-81
2023/01/18 01:51:10;;;;;;;20.80;12.13;;;0.60;99.90;;;;;;5052863;28;20033;-82
2023/01/18 01:53:37;;;;;;;18.80;11.70;;;0.60;99.90;;;;;;5052701;28;20474;-81
2023/01/18 01:56:03;;;;;;;17.40;11.45;;;0.60;99.90;;;;;;5052863;28;20017;-82
2023/01/18 01:58:30;;;;;;;16.15;11.20;;;0.60;99.90;;;;;;5051557;28;20024;-81
2023/01/18 02:00:56;;;;;;;13.95;10.95;;;0.60;99.90;;;;;;5052689;28;20029;-82
2023/01/18 02:03:24;;;;;;;20.00;12.15;;;0.50;99.90;;;;;;5051454;28;20036;-81
2023/01/18 02:06:00;;;;;;;16.98;9.65;;;0.50;99.90;;;;;;5052685;28;20044;-81
2023/01/18 02:08:27;;;;;;;12.88;9.60;;;0.50;99.90;;;;;;5051496;28;20053;-81
2023/01/18 02:10:53;;;;;;;16.85;9.95;;;0.50;99.90;;;;;;5052649;28;20021;-81
2023/01/18 02:13:24;;;;;;;11.73;7.70;;;0.50;99.90;;;;;;5052311;28;20025;-81
2023/01/18 02:15:59;;;;;;;11.50;8.02;;;0.50;99.90;;;;;;5052622;28;20021;-81
2023/01/18 02:18:33;;;;;;;12.35;8.55;;;0.50;99.90;;;;;;5052533;28;20484;-81
2023/01/18 02:21:13;;;;;;;11.82;8.40;;;0.50;99.90;;;;;;5051191;28;20028;-82
2023/01/18 02:23:59;;;;;;;10.75;6.95;;;0.50;99.90;;;;;;5051125;28;20073;-81
2023/01/18 02:26:48;;;;;;;11.07;6.72;;;0.50;99.90;;;;;;5056221;28;20034;-82
2023/01/18 02:29:17;;;;;;;10.57;6.63;;;0.50;99.90;;;;;;5051088;28;20428;-83
2023/01/18 02:32:12;;;;;;;8.00;6.20;;;0.50;99.90;;;;;;5050777;28;20044;-83
2023/01/18 02:34:46;;;;;;;10.73;7.03;;;0.50;99.90;;;;;;5053774;28;20049;-85
2023/01/18 02:37:15;;;;;;;10.75;6.20;;;0.50;99.90;;;;;;5051367;28;20025;-83
2023/01/18 02:39:56;;;;;;;9.60;5.38;;;0.50;99.90;;;;;;5052187;28;20017;-82
2023/01/18 02:48:08;;;;;;;7.90;5.00;;;0.50;99.90;;;;;;5052267;28;20036;-84
2023/01/18 02:50:34;;;;;;;8.30;5.55;;;0.50;99.90;;;;;;5033931;28;20398;-85
2023/01/18 02:52:59;;;;;;;6.10;4.35;;;0.50;99.90;;;;;;5051636;28;20032;-86
2023/01/18 02:55:43;;;;;;;7.55;4.70;;;0.50;99.90;;;;;;5033688;28;20040;-85
2023/01/18 02:58:20;;;;;;;7.07;4.50;;;0.50;99.90;;;;;;5033740;28;20402;-86
2023/01/18 03:00:51;;;;;;;5.95;4.20;;;0.50;99.90;;;;;;5034288;28;20483;-85
2023/01/18 03:03:20;;;;;;;5.97;4.22;;;0.60;99.90;;;;;;5051626;28;20052;-83
2023/01/18 03:05:49;;;;;;;5.15;4.05;;;0.60;99.90;;;;;;5033937;28;20013;-85
2023/01/18 03:08:27;;;;;;;5.20;4.28;;;0.60;99.90;;;;;;5051244;28;20044;-85
2023/01/18 03:10:59;;;;;;;4.80;4.25;;;0.60;99.90;;;;;;5051303;28;20025;-83
2023/01/18 03:13:52;;;;;;;5.47;4.30;;;0.60;99.90;;;;;;5051466;28;20503;-83
2023/01/18 03:16:24;;;;;;;4.63;3.88;;;0.60;99.90;;;;;;5023358;28;20159;-85
2023/01/18 03:19:01;;;;;;;4.88;3.65;;;0.60;99.90;;;;;;5033948;28;20393;-85
2023/01/18 03:21:42;;;;;;;4.78;3.90;;;0.60;99.90;;;;;;5033720;28;20033;-85
2023/01/18 03:24:09;;;;;;;5.63;3.75;;;0.60;99.90;;;;;;5033174;28;20103;-83
2023/01/18 03:26:42;;;;;;;5.13;3.55;;;0.60;99.90;;;;;;5033724;28;20066;-85
2023/01/18 03:35:15;;;;;;;5.40;4.50;;;0.60;99.90;;;;;;5031138;28;20089;-85
2023/01/18 03:37:44;;;;;;;5.85;4.63;;;0.60;99.90;;;;;;5013417;28;20031;-83
2023/01/18 03:40:12;;;;;;;5.50;5.00;;;0.60;99.90;;;;;;5013509;28;20053;-84
2023/01/18 03:43:13;;;;;;;6.20;4.97;;;0.60;99.90;;;;;;5013841;28;20039;-83
2023/01/18 03:45:43;;;;;;;6.68;4.70;;;0.60;99.90;;;;;;5013346;28;20056;-84
2023/01/18 03:48:09;;;;;;;5.20;4.03;;;0.60;99.90;;;;;;5013692;28;20075;-82
2023/01/18 03:50:59;;;;;;;6.10;4.85;;;0.50;99.90;;;;;;5031196;28;20021;-81
2023/01/18 03:53:34;;;;;;;5.82;4.93;;;0.50;99.90;;;;;;5032753;28;20442;-80
2023/01/18 03:56:20;;;;;;;5.13;4.45;;;0.50;99.90;;;;;;5051010;28;20073;-81
2023/01/18 03:58:50;;;;;;;5.65;3.83;;;0.50;99.90;;;;;;5050931;27;20021;-82
2023/01/18 04:01:16;;;;;;;4.72;3.70;;;0.50;99.90;;;;;;5050618;28;20086;-85
2023/01/18 04:03:42;;;;;;;4.80;3.88;;;0.50;99.90;;;;;;5032397;28;20029;-83
2023/01/18 04:06:08;;;;;;;4.25;3.70;;;0.40;99.90;;;;;;5050604;28;20032;-84
2023/01/18 04:08:33;;;;;;;5.07;3.40;;;0.40;99.90;;;;;;5050607;28;20073;-84
2023/01/18 04:10:59;;;;;;;5.57;4.78;;;0.40;99.90;;;;;;5032743;28;20025;-83
2023/01/18 04:13:24;;;;;;;5.78;4.53;;;0.30;99.90;;;;;;5050500;28;20029;-83
2023/01/18 04:15:50;;;;;;;5.55;4.07;;;0.40;99.90;;;;;;5050598;28;20409;-82
2023/01/18 04:18:15;;;;;;;6.55;4.32;;;0.30;99.90;;;;;;5050346;28;20032;-82
2023/01/18 04:20:41;;;;;;;5.70;4.50;;;0.30;99.90;;;;;;5049254;28;20024;-84
2023/01/18 04:23:07;;;;;;;7.57;4.80;;;0.30;99.90;;;;;;5050475;28;20108;-83
2023/01/18 04:25:32;;;;;;;4.93;3.90;;;0.40;99.90;;;;;;5049396;28;20073;-84
2023/01/18 04:27:58;;;;;;;4.70;3.80;;;0.30;99.90;;;;;;5050240;28;20033;-84
2023/01/18 04:30:23;;;;;;;4.05;3.65;;;0.30;99.90;;;;;;5048894;28;20029;-86
2023/01/18 04:32:49;;;;;;;5.07;4.03;;;0.30;99.90;;;;;;5050178;28;20056;-83
2023/01/18 04:35:15;;;;;;;5.47;4.80;;;0.40;99.90;;;;;;5050346;28;20112;-84
2023/01/18 04:37:40;;;;;;;5.72;4.03;;;0.40;99.90;;;;;;5050669;28;20074;-83
2023/01/18 04:40:07;;;;;;;4.13;3.63;;;0.30;99.90;;;;;;5049028;28;20073;-83
2023/01/18 04:42:33;;;;;;;5.00;4.15;;;0.40;99.90;;;;;;5049017;28;20033;-83
2023/01/18 04:44:58;;;;;;;5.13;4.68;;;0.40;99.90;;;;;;5049225;28;20079;-83
2023/01/18 04:47:27;;;;;;;5.70;3.83;;;0.40;99.90;;;;;;5050150;28;20020;-83
2023/01/18 04:49:53;;;;;;;3.97;3.50;;;0.40;99.90;;;;;;5050265;28;20074;-83
2023/01/18 04:52:19;;;;;;;4.32;3.72;;;0.40;99.90;;;;;;5049003;28;20029;-82
2023/01/18 04:54:45;;;;;;;4.70;3.95;;;0.40;99.90;;;;;;5048814;28;20029;-83
2023/01/18 04:57:10;;;;;;;4.18;3.60;;;0.40;99.90;;;;;;5048756;28;20017;-83
2023/01/18 04:59:38;;;;;;;4.05;3.47;;;0.40;99.90;;;;;;5048874;28;20077;-83
2023/01/18 05:02:03;;;;;;;4.55;4.15;;;0.40;99.90;;;;;;5048769;28;20169;-83
2023/01/18 05:04:29;;;;;;;5.97;4.45;;;0.40;99.90;;;;;;5051766;28;20569;-83
2023/01/18 05:06:55;;;;;;;4.50;4.03;;;0.50;99.90;;;;;;5052011;28;20021;-83
2023/01/18 05:09:20;;;;;;;5.72;4.15;;;0.40;99.90;;;;;;5052247;28;20101;-82
2023/01/18 05:11:46;;;;;;;7.22;4.05;;;0.50;99.90;;;;;;5053392;28;20025;-81
2023/01/18 05:14:12;;;;;;;4.05;3.58;;;0.50;99.90;;;;;;5053453;28;20497;-83
2023/01/18 05:16:38;;;;;;;5.03;3.78;;;0.50;99.90;;;;;;5053511;28;20108;-81
2023/01/18 05:19:03;;;;;;;3.88;3.58;;;0.50;99.90;;;;;;5052139;28;20112;-81
2023/01/18 05:21:29;;;;;;;5.65;3.78;;;0.50;99.90;;;;;;5053396;28;20389;-82
2023/01/18 05:23:55;;;;;;;5.60;4.22;;;0.50;99.90;;;;;;5052453;28;20033;-82
2023/01/18 05:26:22;;;;;;;4.32;3.30;;;0.50;99.90;;;;;;5053387;28;20021;-82
2023/01/18 05:28:49;;;;;;;3.92;3.63;;;0.50;99.90;;;;;;5043299;28;20032;-83
2023/01/18 05:31:19;;;;;;;5.72;4.30;;;0.60;99.90;;;;;;5052899;28;20516;-83
2023/01/18 05:33:45;;;;;;;4.80;3.63;;;0.60;99.90;;;;;;5098543;27;20419;-83
2023/01/18 05:36:11;;;;;;;5.63;4.53;;;0.60;99.90;;;;;;5053094;28;20057;-83
2023/01/18 05:38:36;;;;;;;4.45;3.72;;;0.50;99.90;;;;;;5122661;27;20454;-81
2023/01/18 05:41:02;;;;;;;4.35;3.95;;;0.50;99.90;;;;;;5122262;27;20100;-81
2023/01/18 05:43:28;;;;;;;9.55;5.20;;;0.50;99.90;;;;;;5122514;27;20381;-82
2023/01/18 05:45:54;;;;;;;6.45;5.50;;;0.50;99.90;;;;;;5122449;27;20025;-82
2023/01/18 05:48:20;;;;;;;9.00;5.75;;;0.50;99.90;;;;;;5052911;28;20104;-82
2023/01/18 05:50:47;;;;;;;7.03;5.22;;;0.50;99.90;;;;;;5052956;27;20386;-84
2023/01/18 05:53:16;;;;;;;8.32;6.03;;;0.60;99.90;;;;;;5122084;27;20017;-83
2023/01/18 05:55:41;;;;;;;8.70;5.13;;;0.50;99.90;;;;;;5122096;27;20394;-81
2023/01/18 05:58:08;;;;;;;6.55;4.93;;;0.50;99.90;;;;;;5052575;27;20029;-85
2023/01/18 06:00:33;;;;;;;8.80;6.18;;;0.60;99.90;;;;;;5121695;27;20032;-85
2023/01/18 06:02:59;;;;;;;8.32;5.53;;;0.60;99.90;;;;;;5052756;28;20037;-86
2023/01/18 06:05:25;;;;;;;7.82;5.10;;;0.70;99.90;;;;;;5052420;27;20036;-84
2023/01/18 06:07:51;;;;;;;7.35;5.60;;;0.70;99.90;;;;;;5121839;27;20028;-81
2023/01/18 06:10:17;;;;;;;8.05;5.32;;;0.70;99.90;;;;;;5052588;28;20027;-82
2023/01/18 06:12:43;;;;;;;7.57;6.45;;;0.70;99.90;;;;;;5052386;27;20032;-82
2023/01/18 06:15:09;;;;;;;6.85;4.65;;;0.70;99.90;;;;;;5054732;28;20026;-83
2023/01/18 06:17:35;;;;;;;7.10;5.18;;;0.70;99.90;;;;;;5068880;27;20386;-83
2023/01/18 06:20:02;;;;;;;7.25;4.93;;;0.70;99.90;;;;;;5052140;28;20478;-83
2023/01/18 06:22:28;;;;;;;6.40;4.82;;;0.70;99.90;;;;;;5052752;27;20033;-83
2023/01/18 06:24:54;;;;;;;6.13;4.63;;;0.70;99.90;;;;;;5034332;28;20017;-82
2023/01/18 06:27:20;;;;;;;6.50;4.72;;;0.70;99.90;;;;;;5075343;27;20029;-82
2023/01/18 06:29:46;;;;;;;6.30;4.70;;;0.70;99.90;;;;;;5113079;27;20043;-84
2023/01/18 06:32:12;;;;;;;5.45;4.60;;;0.70;99.90;;;;;;5076062;27;20496;-79
2023/01/18 06:34:37;;;;;;;7.05;5.13;;;0.70;99.90;;;;;;5099295;27;20122;-84
2023/01/18 06:37:03;;;;;;;7.65;5.78;;;0.70;99.90;;;;;;5087294;27;20383;-84
2023/01/18 06:39:29;;;;;;;7.28;5.47;;;0.70;99.90;;;;;;5095458;27;20108;-84
2023/01/18 06:41:55;;;;;;;8.55;5.88;;;0.70;99.90;;;;;;5089885;27;20065;-84
2023/01/18 06:44:20;;;;;;;13.23;7.38;;;0.70;99.90;;;;;;5093796;27;20026;-84
2023/01/18 06:46:46;;;;;;;12.43;8.00;;;0.70;99.90;;;;;;5122023;27;20041;-83
2023/01/18 06:49:13;;;;;;;9.05;6.75;;;0.70;99.90;;;;;;5087168;27;20052;-84
2023/01/18 06:51:39;;;;;;;13.02;7.90;;;0.70;99.90;;;;;;5080343;27;20108;-83
2023/01/18 06:54:05;;;;;;;11.23;7.03;;;0.80;99.90;;;;;;5115801;27;20031;-83
2023/01/18 06:56:31;;;;;;;11.77;7.43;;;0.80;99.90;;;;;;5048991;28;20025;-84
2023/01/18 06:58:57;;;;;;;14.13;9.18;;;0.80;99.90;;;;;;5049147;28;20744;-83
2023/01/18 07:01:24;;;;;;;22.15;11.95;;;0.80;99.90;;;;;;5092771;27;20050;-83
2023/01/18 07:03:50;;;;;;;27.35;14.25;;;0.80;99.90;;;;;;5055039;27;20108;-83
2023/01/18 07:06:16;;;;;;;20.02;12.52;;;0.80;99.90;;;;;;5049021;28;20108;-82
2023/01/18 07:08:42;;;;;;;16.52;8.55;;;0.80;99.90;;;;;;5047555;28;20112;-82
2023/01/18 07:11:10;;;;;;;19.38;10.32;;;0.70;99.90;;;;;;5050912;28;20037;-83
2023/01/18 07:13:39;;;;;;;16.45;9.85;;;0.70;99.90;;;;;;5037318;28;20029;-83
2023/01/18 07:16:05;;;;;;;19.73;11.27;;;0.80;99.90;;;;;;5051116;28;20482;-83
2023/01/18 07:18:31;;;;;;;17.88;9.57;;;0.90;99.90;;;;;;5051264;28;20485;-83
2023/01/18 07:21:01;;;;;;;13.98;8.40;;;0.90;99.90;;;;;;5080919;27;20025;-84
2023/01/18 07:23:27;;;;;;;13.70;8.20;;;0.90;99.90;;;;;;5103801;27;20022;-82
2023/01/18 07:26:19;;;;;;;12.40;7.45;;;0.90;99.90;;;;;;5129876;27;20064;-83
2023/01/18 07:28:46;;;;;;;14.52;8.57;;;0.90;99.90;;;;;;5027796;28;20071;-83
2023/01/18 07:31:12;;;;;;;14.90;7.72;;;0.90;99.90;;;;;;5028174;28;20562;-83
2023/01/18 07:33:38;;;;;;;16.70;9.35;;;0.90;99.90;;;;;;5029387;28;20037;-83
2023/01/18 07:36:05;;;;;;;14.20;7.95;;;0.90;99.90;;;;;;5029301;28;20026;-83
2023/01/18 07:38:31;;;;;;;13.77;8.27;;;0.90;99.90;;;;;;5081334;27;20507;-83
2023/01/18 07:41:00;;;;;;;16.75;8.65;;;0.90;99.90;;;;;;5154853;27;20031;-83
2023/01/18 07:43:27;;;;;;;13.27;8.75;;;0.90;99.90;;;;;;5155868;27;20769;-84
2023/01/18 07:45:53;;;;;;;16.27;8.75;;;0.90;99.90;;;;;;5137506;27;20465;-83
2023/01/18 07:48:20;;;;;;;17.40;10.52;;;0.90;99.90;;;;;;5155805;27;20026;-84
2023/01/18 07:50:57;;;;;;;14.65;8.77;;;0.80;99.90;;;;;;5155493;27;20464;-83
2023/01/18 07:53:24;;;;;;;15.80;8.50;;;0.90;99.90;;;;;;5155597;27;20019;-83
2023/01/18 07:55:50;;;;;;;15.52;8.27;;;0.80;99.90;;;;;;5136670;27;20424;-83
2023/01/18 07:58:17;;;;;;;15.15;8.88;;;0.80;99.90;;;;;;5119662;27;20023;-83
2023/01/18 08:00:43;;;;;;;14.85;9.05;;;0.80;99.90;;;;;;5155481;27;20502;-83
2023/01/18 08:03:16;;;;;;;31.90;14.20;;;0.90;99.90;;;;;;5098179;27;20066;-83
2023/01/18 08:05:44;;;;;;;35.35;14.90;;;0.80;99.90;;;;;;5050648;28;20021;-83
2023/01/18 08:08:11;;;;;;;39.88;17.05;;;0.80;99.90;;;;;;5050702;27;20090;-84
2023/01/18 08:10:38;;;;;;;23.55;11.68;;;0.90;99.90;;;;;;5032556;28;20036;-83
2023/01/18 08:13:05;;;;;;;22.02;10.68;;;0.90;99.90;;;;;;5031247;28;20437;-84
2023/01/18 08:15:31;;;;;;;17.40;10.05;;;0.90;99.90;;;;;;5119370;27;20033;-83
2023/01/18 08:18:00;;;;;;;24.50;13.30;;;1.00;99.90;;;;;;5118863;27;20470;-84
2023/01/18 08:20:25;;;;;;;20.48;14.00;;;1.10;99.90;;;;;;5050361;27;20025;-84
2023/01/18 08:22:56;;;;;;;16.20;8.82;;;1.10;99.90;;;;;;5105438;27;20542;-83
2023/01/18 08:25:23;;;;;;;16.15;9.10;;;1.10;99.90;;;;;;5125808;27;20048;-83
2023/01/18 08:27:48;;;;;;;18.92;9.02;;;1.20;99.90;;;;;;5105153;27;20367;-83
2023/01/18 08:30:14;;;;;;;15.75;9.35;;;1.20;99.90;;;;;;5054764;28;20025;-82
2023/01/18 08:32:40;;;;;;;16.20;8.35;;;1.30;99.90;;;;;;5053768;28;20139;-82
2023/01/18 08:35:06;;;;;;;14.70;7.50;;;1.30;99.90;;;;;;5032808;28;20030;-82
2023/01/18 08:37:32;;;;;;;16.83;8.43;;;1.20;99.90;;;;;;5081030;27;20042;-82
2023/01/18 08:39:57;;;;;;;18.08;8.23;;;1.10;99.90;;;;;;5082898;27;20058;-82
2023/01/18 08:42:23;;;;;;;19.25;11.13;;;1.20;99.90;;;;;;5119262;27;20033;-83
2023/01/18 08:44:48;;;;;;;15.50;8.30;;;1.20;99.90;;;;;;5152221;27;20050;-83
2023/01/18 08:47:14;;;;;;;15.85;7.55;;;1.20;99.90;;;;;;5120618;27;20075;-82
2023/01/18 08:49:40;;;;;;;14.05;7.10;;;1.20;99.90;;;;;;5059147;28;20386;-83
2023/01/18 08:52:06;;;;;;;13.45;8.20;;;1.20;99.90;;;;;;5031002;28;20107;-82
2023/01/18 08:54:31;;;;;;;13.43;8.50;;;1.20;99.90;;;;;;5032479;28;20047;-83
2023/01/18 08:56:57;;;;;;;18.83;9.63;;;1.30;99.90;;;;;;5032174;28;20033;-83
2023/01/18 08:59:23;;;;;;;19.95;10.50;;;1.30;99.90;;;;;;5032602;28;20028;-83
2023/01/18 09:01:48;;;;;;;28.02;14.05;;;1.30;99.90;;;;;;5032438;28;20017;-85
2023/01/18 09:04:14;;;;;;;32.90;15.38;;;1.40;99.90;;;;;;5032285;28;20025;-83
2023/01/18 09:06:40;;;;;;;24.40;14.18;;;1.40;99.90;;;;;;5032132;28;20017;-83
2023/01/18 09:09:06;;;;;;;28.20;17.15;;;1.40;99.90;;;;;;5049903;28;20025;-83
2023/01/18 09:11:31;;;;;;;39.15;20.77;;;1.50;99.90;;;;;;5032420;28;20539;-83
2023/01/18 09:13:58;;;;;;;30.08;16.35;;;1.50;99.90;;;;;;5049938;28;20037;-84
2023/01/18 09:16:24;;;;;;;23.65;15.10;;;1.40;99.90;;;;;;5032209;28;20025;-83
2023/01/18 09:18:49;;;;;;;25.90;15.13;;;1.40;99.90;;;;;;5031915;28;20017;-83
2023/01/18 09:21:19;;;;;;;30.23;19.23;;;1.40;99.90;;;;;;5066673;27;20038;-84
2023/01/18 09:23:47;;;;;;;34.92;18.52;;;1.50;99.90;;;;;;5135940;27;20019;-83
2023/01/18 09:26:19;;;;;;;38.95;21.85;;;1.50;99.90;;;;;;5135953;27;20019;-83
2023/01/18 09:28:51;;;;;;;42.40;22.50;;;1.50;99.90;;;;;;5154698;27;20023;-83
2023/01/18 09:31:17;;;;;;;34.22;17.30;;;1.50;99.90;;;;;;5135888;27;20068;-83
2023/01/18 09:33:43;;;;;;;26.95;14.95;;;1.50;99.90;;;;;;5154391;27;20476;-83
2023/01/18 09:36:12;;;;;;;29.30;16.15;;;1.50;99.90;;;;;;5136187;27;20023;-83
2023/01/18 09:38:39;;;;;;;22.75;12.45;;;1.60;99.90;;;;;;5154480;27;20228;-83
2023/01/18 09:41:15;;;;;;;20.23;11.45;;;1.60;99.90;;;;;;5136167;27;20015;-83
2023/01/18 09:43:49;;;;;;;17.33;9.07;;;1.60;99.90;;;;;;5154802;27;20019;-83
2023/01/18 09:46:20;;;;;;;17.08;9.20;;;1.60;99.90;;;;;;5120282;27;20075;-83
2023/01/18 09:49:03;;;;;;;23.13;10.57;;;1.60;99.90;;;;;;5136087;27;20030;-83
2023/01/18 09:51:43;;;;;;;21.15;10.85;;;1.60;99.90;;;;;;5060755;27;20102;-83
2023/01/18 09:54:36;;;;;;;27.73;12.07;;;1.60;99.90;;;;;;5052035;28;20545;-83
2023/01/18 09:57:24;;;;;;;24.70;11.35;;;1.60;99.90;;;;;;5051825;28;20021;-83
2023/01/18 09:59:55;;;;;;;27.63;11.73;;;1.60;99.90;;;;;;5051933;28;20037;-82
2023/01/18 10:02:27;;;;;;;34.00;14.43;;;1.60;99.90;;;;;;5121625;27;20025;-83
2023/01/18 10:05:03;;;;;;;31.43;14.07;;;1.50;99.90;;;;;;5052142;28;20412;-82
2023/01/18 10:07:32;;;;;;;36.58;14.35;;;1.50;99.90;;;;;;5052270;27;20271;-82
2023/01/18 10:10:00;;;;;;;40.20;14.23;;;1.40;99.90;;;;;;5121164;27;20485;-83
2023/01/18 10:13:06;;;;;;;35.38;12.90;;;1.40;99.90;;;;;;5121078;27;20069;-83
2023/01/18 10:15:33;;;;;;;29.23;11.85;;;1.40;99.90;;;;;;5052185;27;20040;-83
2023/01/18 10:18:00;;;;;;;35.72;14.27;;;1.30;99.90;;;;;;5052437;27;20474;-83
2023/01/18 10:20:34;;;;;;;35.28;13.32;;;1.30;99.90;;;;;;5052484;27;20502;-83
2023/01/18 10:23:09;;;;;;;29.27;14.30;;;1.40;99.90;;;;;;5048309;28;20021;-83
2023/01/18 10:26:10;;;;;;;41.58;16.00;;;1.30;99.90;;;;;;5120147;27;20025;-82
2023/01/18 10:29:03;;;;;;;33.17;14.00;;;1.30;99.90;;;;;;5121601;27;20025;-83
2023/01/18 10:31:43;;;;;;;31.13;13.38;;;1.30;99.90;;;;;;5121207;27;20405;-82
2023/01/18 10:34:20;;;;;;;35.65;16.92;;;1.30;99.90;;;;;;5070297;27;20042;-82
2023/01/18 10:37:00;;;;;;;29.60;13.77;;;1.30;99.90;;;;;;5156372;27;20023;-82
2023/01/18 10:39:46;;;;;;;31.17;16.92;;;1.40;99.90;;;;;;5137148;27;20018;-83
2023/01/18 10:42:21;;;;;;;22.02;10.60;;;1.40;99.90;;;;;;5138433;27;20388;-83
2023/01/18 10:44:47;;;;;;;28.83;13.18;;;1.40;99.90;;;;;;5138553;27;20019;-83
2023/01/18 10:47:16;;;;;;;27.17;12.55;;;1.40;99.90;;;;;;5138405;27;20034;-83
2023/01/18 10:49:44;;;;;;;24.27;11.90;;;1.40;99.90;;;;;;5157012;27;20029;-83
2023/01/18 10:52:30;;;;;;;22.60;12.10;;;1.30;99.90;;;;;;5066834;27;20014;-82
2023/01/18 10:55:06;;;;;;;25.85;12.30;;;1.30;99.90;;;;;;5039823;27;20162;-83
2023/01/18 10:57:50;;;;;;;23.98;12.63;;;1.30;99.90;;;;;;5056465;27;20543;-83
2023/01/18 11:00:31;;;;;;;30.15;13.45;;;1.40;99.90;;;;;;5071342;27;20022;-83
2023/01/18 11:02:58;;;;;;;23.27;13.43;;;1.40;99.90;;;;;;5093397;27;20492;-84
2023/01/18 11:05:33;;;;;;;25.83;13.77;;;1.40;99.90;;;;;;5085039;27;20041;-84
2023/01/18 11:08:12;;;;;;;21.42;13.27;;;1.40;99.90;;;;;;5094613;27;20114;-82
2023/01/18 11:10:40;;;;;;;23.95;13.07;;;1.30;99.90;;;;;;5082199;27;20040;-85
2023/01/18 11:13:33;;;;;;;38.55;16.25;;;1.30;99.90;;;;;;5096004;27;20030;-85
2023/01/18 11:16:22;;;;;;;26.45;14.45;;;1.30;99.90;;;;;;5100965;27;20124;-83
2023/01/18 11:18:59;;;;;;;32.80;15.35;;;1.30;99.90;;;;;;5108417;27;20030;-85
2023/01/18 11:21:32;;;;;;;30.13;15.68;;;1.20;99.90;;;;;;5078545;27;20030;-85
2023/01/18 11:24:04;;;;;;;24.23;13.30;;;1.20;99.90;;;;;;5113886;27;20417;-84
2023/01/18 11:26:31;;;;;;;22.08;12.85;;;1.20;99.90;;;;;;5091577;27;20045;-84
2023/01/18 11:29:04;;;;;;;29.23;13.98;;;1.20;99.90;;;;;;5094849;27;20092;-84
2023/01/18 11:31:30;;;;;;;;;;;1.20;99.90;;;;;;5092680;27;20084;-84
2023/01/18 11:34:05;;;;;;;33.90;14.80;;;1.20;99.90;;;;;;5088059;27;19914;-84
2023/01/18 11:36:35;;;;;;;26.20;12.60;;;1.20;99.90;;;;;;5076252;27;20040;-87
2023/01/18 11:39:29;;;;;;;29.55;15.18;;;1.20;99.90;;;;;;5088100;27;20025;-85
2023/01/18 11:42:20;;;;;;;25.38;14.32;;;1.20;99.90;;;;;;5093050;27;20459;-86
2023/01/18 11:45:03;;;;;;;25.15;12.50;;;1.20;99.90;;;;;;5101586;27;20475;-86
2023/01/18 11:48:00;;;;;;;26.25;14.13;;;1.20;99.90;;;;;;5086276;27;20033;-85
2023/01/18 11:50:39;;;;;;;23.25;13.30;;;1.20;99.90;;;;;;5084253;27;20142;-85
2023/01/18 11:53:44;;;;;;;20.67;12.63;;;1.20;99.90;;;;;;5012068;28;20056;-85
2023/01/18 11:56:25;;;;;;;23.70;13.63;;;1.20;99.90;;;;;;5050853;27;20480;-85
2023/01/18 11:58:52;;;;;;;21.60;11.98;;;1.20;99.90;;;;;;5136029;27;20349;-85
2023/01/18 12:01:52;;;;;;;21.33;13.00;;;1.30;99.90;;;;;;5135549;27;20061;-84
2023/01/18 12:04:53;;;;;;;23.42;12.38;;;1.30;99.90;;;;;;5009128;28;20044;-85
2023/01/18 12:07:49;;;;;;;25.08;13.25;;;1.30;99.90;;;;;;5022898;28;20038;-84
2023/01/18 12:10:28;;;;;;;18.77;11.95;;;1.30;99.90;;;;;;5031794;28;20027;-84
2023/01/18 12:13:03;;;;;;;21.65;14.05;;;1.30;99.90;;;;;;5093316;27;20123;-85
2023/01/18 12:15:41;;;;;;;24.63;12.90;;;1.30;99.90;;;;;;5076607;27;20508;-84
2023/01/18 12:18:19;;;;;;;22.35;14.43;;;1.20;99.90;;;;;;5092824;27;20027;-84
2023/01/18 12:21:06;;;;;;;21.02;13.60;;;1.20;99.90;;;;;;5118297;27;20569;-84
2023/01/18 12:23:53;;;;;;;25.77;14.65;;;1.20;99.90;;;;;;5105337;27;20039;-84
2023/01/18 12:26:53;;;;;;;19.60;13.07;;;1.20;99.90;;;;;;5097650;27;20025;-84
2023/01/18 12:29:47;;;;;;;22.90;14.57;;;1.20;99.90;;;;;;5096838;27;20041;-84
2023/01/18 12:32:40;;;;;;;19.77;12.07;;;1.30;99.90;;;;;;5073409;27;20037;-84
2023/01/18 12:35:15;;;;;;;30.67;16.23;;;1.20;99.90;;;;;;5085813;27;20049;-84
2023/01/18 12:37:59;;;;;;;19.67;12.65;;;1.20;99.90;;;;;;5100871;27;20068;-84
2023/01/18 12:40:30;;;;;;;22.77;13.48;;;1.20;99.90;;;;;;5104612;27;20487;-84
2023/01/18 12:42:59;;;;;;;22.05;12.70;;;1.10;99.90;;;;;;5119176;27;20030;-84
2023/01/18 12:45:29;;;;;;;21.27;13.10;;;1.10;99.90;;;;;;5074289;28;20124;-83
2023/01/18 12:48:28;;;;;;;24.45;14.30;;;1.10;99.90;;;;;;5031104;28;20093;-85
2023/01/18 12:50:55;;;;;;;25.30;14.90;;;1.10;99.90;;;;;;5128256;27;20030;-84
2023/01/18 12:53:34;;;;;;;24.90;14.65;;;1.00;99.90;;;;;;5153374;27;20035;-84
2023/01/18 12:56:08;;;;;;;23.55;15.45;;;1.00;99.90;;;;;;5134752;27;20041;-85
2023/01/18 12:58:34;;;;;;;30.50;15.30;;;0.90;99.90;;;;;;5134603;27;20031;-84
2023/01/18 13:01:04;;;;;;;30.40;16.05;;;0.90;99.90;;;;;;5153474;27;20475;-85
2023/01/18 13:03:42;;;;;;;23.58;14.93;;;0.90;99.90;;;;;;5134367;27;20555;-85
2023/01/18 13:06:11;;;;;;;28.85;16.88;;;0.80;99.90;;;;;;5140760;27;20026;-85
2023/01/18 13:08:56;;;;;;;30.48;18.17;;;0.90;99.90;;;;;;5013021;28;20025;-87
2023/01/18 13:11:26;;;;;;;31.92;17.73;;;0.90;99.90;;;;;;5012450;28;20117;-83
2023/01/18 13:14:02;;;;;;;35.83;20.88;;;0.90;99.90;;;;;;5048539;27;20739;-83
2023/01/18 13:16:50;;;;;;;50.03;26.17;;;0.80;99.90;;;;;;5082897;27;20029;-85
2023/01/18 13:19:22;;;;;;;39.60;23.80;;;0.80;99.90;;;;;;5077904;27;20025;-82
2023/01/18 13:22:43;;;;;;;45.75;24.92;;;0.80;99.90;;;;;;5068960;27;20060;-83
2023/01/18 13:25:39;;;;;;;44.67;23.30;;;0.80;99.90;;;;;;5049441;28;20041;-83
2023/01/18 13:28:16;;;;;;;53.95;28.10;;;0.80;99.90;;;;;;5098403;27;20110;-83
2023/01/18 13:30:55;;;;;;;54.33;26.55;;;0.70;99.90;;;;;;5081294;27;20020;-83
2023/01/18 13:33:26;;;;;;;67.78;32.17;;;0.70;99.90;;;;;;5080185;27;20406;-84
2023/01/18 13:35:55;;;;;;;55.85;29.13;;;0.70;99.90;;;;;;5122929;27;20040;-84
2023/01/18 13:38:26;;;;;;;55.38;31.23;;;0.70;99.90;;;;;;5109165;27;20504;-84